Terminal Aerodrome Forecast
Issued by NWS

Home | Current Version | Previous Version | Graphics & Text | Print | Product List | Glossary On
Versions: 1 2 3 4 5 6 7 8 9 10 11 12 13 14 15 16 17 18 19 20 21 22
000
FTUS43 KMPX 160303 AAA
TAFAXN
TAF AMD
KAXN 160303Z 1603/1624 12007KT P6SM OVC050
     FM160600 12007KT P6SM OVC030
     FM161200 11007KT P6SM VCSH OVC015
     FM161800 12005KT P6SM OVC015
     FM162100 VRB03KT P6SM OVC020=

USA.gov is the U.S. government's official web portal to all federal, state and local government web resources and services.